sensor_id;sensor_type;location;lat;lon;timestamp;pressure;altitude;pressure_sealevel;temperature;humidity
72925;BME280;61070;50.794;7.054;2023-04-06T00:00:04;101080.72;;;2.91;80.20
72925;BME280;61070;50.794;7.054;2023-04-06T00:02:30;101083.16;;;2.84;79.69
72925;BME280;61070;50.794;7.054;2023-04-06T00:04:55;101085.56;;;2.76;80.01
72925;BME280;61070;50.794;7.054;2023-04-06T00:07:21;101078.44;;;2.71;80.12
72925;BME280;61070;50.794;7.054;2023-04-06T00:09:46;101079.00;;;2.59;80.39
72925;BME280;61070;50.794;7.054;2023-04-06T00:12:12;101080.56;;;2.51;80.82
72925;BME280;61070;50.794;7.054;2023-04-06T00:14:37;101078.91;;;2.54;81.28
72925;BME280;61070;50.794;7.054;2023-04-06T00:17:02;101073.44;;;2.47;81.48
72925;BME280;61070;50.794;7.054;2023-04-06T00:19:28;101071.69;;;2.46;81.11
72925;BME280;61070;50.794;7.054;2023-04-06T00:21:53;101073.31;;;2.41;81.82
72925;BME280;61070;50.794;7.054;2023-04-06T00:24:18;101066.34;;;2.41;81.61
72925;BME280;61070;50.794;7.054;2023-04-06T00:26:44;101064.56;;;2.40;81.31
72925;BME280;61070;50.794;7.054;2023-04-06T00:29:09;101064.63;;;2.42;81.17
72925;BME280;61070;50.794;7.054;2023-04-06T00:31:34;101060.28;;;2.42;81.84
72925;BME280;61070;50.794;7.054;2023-04-06T00:34:00;101061.13;;;2.41;82.08
72925;BME280;61070;50.794;7.054;2023-04-06T00:36:25;101057.88;;;2.50;81.79
72925;BME280;61070;50.794;7.054;2023-04-06T00:38:51;101055.16;;;2.47;81.62
72925;BME280;61070;50.794;7.054;2023-04-06T00:41:17;101055.88;;;2.41;81.59
72925;BME280;61070;50.794;7.054;2023-04-06T00:43:43;101059.41;;;2.43;81.51
72925;BME280;61070;50.794;7.054;2023-04-06T00:46:08;101050.63;;;2.40;81.26
72925;BME280;61070;50.794;7.054;2023-04-06T00:48:33;101041.94;;;2.41;81.40
72925;BME280;61070;50.794;7.054;2023-04-06T00:50:59;101044.44;;;2.38;81.73
72925;BME280;61070;50.794;7.054;2023-04-06T00:53:24;101035.56;;;2.31;81.61
72925;BME280;61070;50.794;7.054;2023-04-06T00:55:50;101040.81;;;2.31;82.05
72925;BME280;61070;50.794;7.054;2023-04-06T00:58:15;101036.53;;;2.34;82.33
72925;BME280;61070;50.794;7.054;2023-04-06T01:00:41;101029.59;;;2.37;81.99
72925;BME280;61070;50.794;7.054;2023-04-06T01:03:07;101032.28;;;2.38;82.27
72925;BME280;61070;50.794;7.054;2023-04-06T01:05:34;101030.41;;;2.34;81.97
72925;BME280;61070;50.794;7.054;2023-04-06T01:08:00;101023.38;;;2.31;82.46
72925;BME280;61070;50.794;7.054;2023-04-06T01:10:27;101022.47;;;2.29;82.03
72925;BME280;61070;50.794;7.054;2023-04-06T01:12:52;101017.13;;;2.26;82.38
72925;BME280;61070;50.794;7.054;2023-04-06T01:15:18;101014.50;;;2.25;82.26
72925;BME280;61070;50.794;7.054;2023-04-06T01:17:44;101007.41;;;2.21;81.94
72925;BME280;61070;50.794;7.054;2023-04-06T01:20:10;101016.03;;;2.17;82.09
72925;BME280;61070;50.794;7.054;2023-04-06T01:22:35;101006.50;;;2.19;82.27
72925;BME280;61070;50.794;7.054;2023-04-06T01:25:00;101001.88;;;2.09;83.69
72925;BME280;61070;50.794;7.054;2023-04-06T01:27:26;101014.00;;;2.07;84.13
72925;BME280;61070;50.794;7.054;2023-04-06T01:29:53;101001.75;;;2.04;83.89
72925;BME280;61070;50.794;7.054;2023-04-06T01:32:18;100999.06;;;2.02;84.69
72925;BME280;61070;50.794;7.054;2023-04-06T01:34:43;100996.41;;;2.01;84.97
72925;BME280;61070;50.794;7.054;2023-04-06T01:37:09;100993.91;;;2.04;84.83
72925;BME280;61070;50.794;7.054;2023-04-06T01:39:34;100989.56;;;2.04;84.38
72925;BME280;61070;50.794;7.054;2023-04-06T01:41:59;100994.00;;;2.07;84.09
72925;BME280;61070;50.794;7.054;2023-04-06T01:44:25;100987.97;;;2.10;83.15
72925;BME280;61070;50.794;7.054;2023-04-06T01:46:50;100994.00;;;2.07;82.74
72925;BME280;61070;50.794;7.054;2023-04-06T01:49:15;100993.94;;;2.06;82.81
72925;BME280;61070;50.794;7.054;2023-04-06T01:51:41;100990.28;;;1.99;82.91
72925;BME280;61070;50.794;7.054;2023-04-06T01:54:06;100981.44;;;1.94;82.76
72925;BME280;61070;50.794;7.054;2023-04-06T01:56:31;100983.06;;;1.90;82.49
72925;BME280;61070;50.794;7.054;2023-04-06T01:58:57;100982.94;;;1.86;82.84
72925;BME280;61070;50.794;7.054;2023-04-06T02:01:22;100975.97;;;1.85;83.47
72925;BME280;61070;50.794;7.054;2023-04-06T02:03:47;100984.59;;;1.82;83.57
72925;BME280;61070;50.794;7.054;2023-04-06T02:06:13;100975.81;;;1.80;83.47
72925;BME280;61070;50.794;7.054;2023-04-06T02:08:38;100980.31;;;1.84;84.10
72925;BME280;61070;50.794;7.054;2023-04-06T02:11:03;100982.75;;;1.80;84.06
72925;BME280;61070;50.794;7.054;2023-04-06T02:13:29;100978.28;;;1.74;84.17
72925;BME280;61070;50.794;7.054;2023-04-06T02:15:54;100973.84;;;1.71;84.40
72925;BME280;61070;50.794;7.054;2023-04-06T02:18:20;100978.19;;;1.71;85.68
72925;BME280;61070;50.794;7.054;2023-04-06T02:20:45;100977.94;;;1.62;85.97
72925;BME280;61070;50.794;7.054;2023-04-06T02:23:11;100980.34;;;1.56;85.75
72925;BME280;61070;50.794;7.054;2023-04-06T02:25:36;100978.50;;;1.52;85.70
72925;BME280;61070;50.794;7.054;2023-04-06T02:28:02;100977.56;;;1.50;85.57
72925;BME280;61070;50.794;7.054;2023-04-06T02:30:27;100977.47;;;1.46;85.58
72925;BME280;61070;50.794;7.054;2023-04-06T02:32:54;100977.41;;;1.45;85.21
72925;BME280;61070;50.794;7.054;2023-04-06T02:35:22;100977.38;;;1.43;85.07
72925;BME280;61070;50.794;7.054;2023-04-06T02:37:47;100973.03;;;1.44;84.77
72925;BME280;61070;50.794;7.054;2023-04-06T02:40:13;100978.41;;;1.49;84.43
72925;BME280;61070;50.794;7.054;2023-04-06T02:42:39;100974.09;;;1.49;84.11
72925;BME280;61070;50.794;7.054;2023-04-06T02:45:05;100968.06;;;1.52;84.25
72925;BME280;61070;50.794;7.054;2023-04-06T02:47:30;100961.16;;;1.54;84.08
72925;BME280;61070;50.794;7.054;2023-04-06T02:49:55;100976.72;;;1.51;84.50
72925;BME280;61070;50.794;7.054;2023-04-06T02:52:21;100974.13;;;1.51;84.44
72925;BME280;61070;50.794;7.054;2023-04-06T02:54:46;100966.09;;;1.44;84.76
72925;BME280;61070;50.794;7.054;2023-04-06T02:57:11;100965.91;;;1.37;84.95
72925;BME280;61070;50.794;7.054;2023-04-06T02:59:37;100963.19;;;1.34;85.08
72925;BME280;61070;50.794;7.054;2023-04-06T03:02:02;100969.31;;;1.36;85.37
72925;BME280;61070;50.794;7.054;2023-04-06T03:04:27;100962.22;;;1.30;85.93
72925;BME280;61070;50.794;7.054;2023-04-06T03:06:54;100953.41;;;1.27;85.88
72925;BME280;61070;50.794;7.054;2023-04-06T03:09:20;100953.66;;;1.36;85.98
72925;BME280;61070;50.794;7.054;2023-04-06T03:11:45;100960.47;;;1.31;86.18
72925;BME280;61070;50.794;7.054;2023-04-06T03:14:10;100954.03;;;1.18;87.27
72925;BME280;61070;50.794;7.054;2023-04-06T03:16:35;100954.69;;;1.12;87.71
72925;BME280;61070;50.794;7.054;2023-04-06T03:19:01;100961.00;;;1.19;88.08
72925;BME280;61070;50.794;7.054;2023-04-06T03:21:26;100962.53;;;1.12;87.88
72925;BME280;61070;50.794;7.054;2023-04-06T03:23:51;100961.75;;;1.15;88.17
72925;BME280;61070;50.794;7.054;2023-04-06T03:26:17;100962.78;;;1.20;88.47
72925;BME280;61070;50.794;7.054;2023-04-06T03:28:42;100955.69;;;1.16;87.14
72925;BME280;61070;50.794;7.054;2023-04-06T03:31:08;100960.81;;;1.13;86.71
72925;BME280;61070;50.794;7.054;2023-04-06T03:33:33;100954.63;;;1.09;86.16
72925;BME280;61070;50.794;7.054;2023-04-06T03:35:58;100953.56;;;1.03;86.09
72925;BME280;61070;50.794;7.054;2023-04-06T03:38:24;100955.22;;;1.01;86.13
72925;BME280;61070;50.794;7.054;2023-04-06T03:40:49;100957.81;;;1.01;86.27
72925;BME280;61070;50.794;7.054;2023-04-06T03:43:14;100955.13;;;0.98;85.84
72925;BME280;61070;50.794;7.054;2023-04-06T03:45:40;100958.50;;;0.94;85.78
72925;BME280;61070;50.794;7.054;2023-04-06T03:48:05;100959.38;;;0.94;86.27
72925;BME280;61070;50.794;7.054;2023-04-06T03:50:31;100961.75;;;0.86;86.09
72925;BME280;61070;50.794;7.054;2023-04-06T03:52:56;100955.59;;;0.84;85.65
72925;BME280;61070;50.794;7.054;2023-04-06T03:55:22;100956.59;;;0.90;85.95
72925;BME280;61070;50.794;7.054;2023-04-06T03:57:47;100960.06;;;0.88;85.50
72925;BME280;61070;50.794;7.054;2023-04-06T04:00:14;100963.66;;;0.92;86.09
72925;BME280;61070;50.794;7.054;2023-04-06T04:02:40;100956.19;;;1.03;85.61
72925;BME280;61070;50.794;7.054;2023-04-06T04:05:06;100956.06;;;1.00;85.44
72925;BME280;61070;50.794;7.054;2023-04-06T04:07:31;100966.50;;;1.00;85.38
72925;BME280;61070;50.794;7.054;2023-04-06T04:09:57;100969.81;;;0.94;85.91
72925;BME280;61070;50.794;7.054;2023-04-06T04:12:22;100960.34;;;0.98;86.41
72925;BME280;61070;50.794;7.054;2023-04-06T04:14:47;100967.53;;;1.05;86.49
72925;BME280;61070;50.794;7.054;2023-04-06T04:17:12;100961.94;;;0.93;86.71
72925;BME280;61070;50.794;7.054;2023-04-06T04:19:38;100966.16;;;0.89;86.74
72925;BME280;61070;50.794;7.054;2023-04-06T04:22:03;100962.81;;;0.93;87.11
72925;BME280;61070;50.794;7.054;2023-04-06T04:24:30;100962.13;;;0.99;87.26
72925;BME280;61070;50.794;7.054;2023-04-06T04:26:55;100968.00;;;0.92;87.43
72925;BME280;61070;50.794;7.054;2023-04-06T04:29:21;100965.97;;;0.83;87.64
72925;BME280;61070;50.794;7.054;2023-04-06T04:31:47;100962.53;;;0.84;88.30
72925;BME280;61070;50.794;7.054;2023-04-06T04:34:14;100966.78;;;0.80;88.60
72925;BME280;61070;50.794;7.054;2023-04-06T04:36:40;100969.44;;;0.82;88.88
72925;BME280;61070;50.794;7.054;2023-04-06T04:39:07;100968.50;;;0.80;88.66
72925;BME280;61070;50.794;7.054;2023-04-06T04:41:32;100969.25;;;0.77;88.90
72925;BME280;61070;50.794;7.054;2023-04-06T04:43:58;100970.06;;;0.75;89.04
72925;BME280;61070;50.794;7.054;2023-04-06T04:46:23;100972.66;;;0.75;89.63
72925;BME280;61070;50.794;7.054;2023-04-06T04:48:48;100969.25;;;0.77;88.92
72925;BME280;61070;50.794;7.054;2023-04-06T04:51:15;100978.66;;;0.72;89.13
72925;BME280;61070;50.794;7.054;2023-04-06T04:53:40;100970.56;;;0.63;89.04
72925;BME280;61070;50.794;7.054;2023-04-06T04:56:05;100969.63;;;0.61;89.18
72925;BME280;61070;50.794;7.054;2023-04-06T04:58:31;100972.06;;;0.56;89.22
72925;BME280;61070;50.794;7.054;2023-04-06T05:00:56;100966.09;;;0.59;89.31
72925;BME280;61070;50.794;7.054;2023-04-06T05:03:23;100964.38;;;0.60;89.19
72925;BME280;61070;50.794;7.054;2023-04-06T05:05:49;100975.81;;;0.65;88.86
72925;BME280;61070;50.794;7.054;2023-04-06T05:08:15;100981.59;;;0.56;89.25
72925;BME280;61070;50.794;7.054;2023-04-06T05:10:40;100977.44;;;0.61;89.10
72925;BME280;61070;50.794;7.054;2023-04-06T05:13:06;100973.28;;;0.68;88.97
72925;BME280;61070;50.794;7.054;2023-04-06T05:15:32;100977.69;;;0.69;88.80
72925;BME280;61070;50.794;7.054;2023-04-06T05:17:59;100969.81;;;0.67;88.77
72925;BME280;61070;50.794;7.054;2023-04-06T05:20:25;100969.97;;;0.72;88.67
72925;BME280;61070;50.794;7.054;2023-04-06T05:22:50;100967.50;;;0.76;88.66
72925;BME280;61070;50.794;7.054;2023-04-06T05:25:16;100968.59;;;0.83;88.33
72925;BME280;61070;50.794;7.054;2023-04-06T05:27:41;100971.38;;;0.89;87.98
72925;BME280;61070;50.794;7.054;2023-04-06T05:30:08;100977.59;;;0.93;88.35
72925;BME280;61070;50.794;7.054;2023-04-06T05:32:34;100980.25;;;0.94;88.09
72925;BME280;61070;50.794;7.054;2023-04-06T05:34:59;100978.56;;;0.96;88.58
72925;BME280;61070;50.794;7.054;2023-04-06T05:37:24;100977.16;;;1.07;88.24
72925;BME280;61070;50.794;7.054;2023-04-06T05:39:50;100971.25;;;1.13;87.91
72925;BME280;61070;50.794;7.054;2023-04-06T05:42:16;100976.66;;;1.19;88.08
72925;BME280;61070;50.794;7.054;2023-04-06T05:44:41;100973.50;;;1.29;87.59
72925;BME280;61070;50.794;7.054;2023-04-06T05:47:07;100975.56;;;1.41;87.76
72925;BME280;61070;50.794;7.054;2023-04-06T05:49:32;100972.25;;;1.46;87.42
72925;BME280;61070;50.794;7.054;2023-04-06T05:51:57;100968.97;;;1.54;86.94
72925;BME280;61070;50.794;7.054;2023-04-06T05:54:23;100973.56;;;1.61;86.89
72925;BME280;61070;50.794;7.054;2023-04-06T05:56:48;100971.13;;;1.68;86.78
72925;BME280;61070;50.794;7.054;2023-04-06T05:59:13;100974.00;;;1.78;86.99
72925;BME280;61070;50.794;7.054;2023-04-06T06:01:39;100974.00;;;1.78;86.88
72925;BME280;61070;50.794;7.054;2023-04-06T06:04:04;100974.28;;;1.87;86.53
72925;BME280;61070;50.794;7.054;2023-04-06T06:06:29;100974.56;;;1.97;85.98
72925;BME280;61070;50.794;7.054;2023-04-06T06:08:56;100979.06;;;2.03;85.93
72925;BME280;61070;50.794;7.054;2023-04-06T06:11:24;100977.56;;;2.13;85.58
72925;BME280;61070;50.794;7.054;2023-04-06T06:13:49;100984.81;;;2.23;85.67
72925;BME280;61070;50.794;7.054;2023-04-06T06:16:15;100973.53;;;2.24;85.95
72925;BME280;61070;50.794;7.054;2023-04-06T06:18:40;100969.41;;;2.33;85.82
72925;BME280;61070;50.794;7.054;2023-04-06T06:21:06;100960.91;;;2.41;86.27
72925;BME280;61070;50.794;7.054;2023-04-06T06:23:31;100965.28;;;2.42;86.14
72925;BME280;61070;50.794;7.054;2023-04-06T06:25:56;100967.28;;;2.52;85.89
72925;BME280;61070;50.794;7.054;2023-04-06T06:28:23;100961.53;;;2.67;86.06
72925;BME280;61070;50.794;7.054;2023-04-06T06:30:50;100970.28;;;2.69;85.76
72925;BME280;61070;50.794;7.054;2023-04-06T06:33:16;100968.88;;;2.83;85.42
72925;BME280;61070;50.794;7.054;2023-04-06T06:35:42;100967.50;;;2.97;85.20
72925;BME280;61070;50.794;7.054;2023-04-06T06:38:07;100972.88;;;3.05;85.32
72925;BME280;61070;50.794;7.054;2023-04-06T06:40:33;100964.44;;;3.16;84.78
72925;BME280;61070;50.794;7.054;2023-04-06T06:42:59;100960.50;;;3.37;84.46
72925;BME280;61070;50.794;7.054;2023-04-06T06:45:24;100958.16;;;3.49;83.53
72925;BME280;61070;50.794;7.054;2023-04-06T06:47:50;100957.03;;;3.78;82.34
72925;BME280;61070;50.794;7.054;2023-04-06T06:50:16;100954.84;;;4.03;80.30
72925;BME280;61070;50.794;7.054;2023-04-06T06:52:42;100946.75;;;4.37;75.87
72925;BME280;61070;50.794;7.054;2023-04-06T06:55:09;100953.22;;;4.59;73.94
72925;BME280;61070;50.794;7.054;2023-04-06T06:57:34;100958.59;;;4.65;74.85
72925;BME280;61070;50.794;7.054;2023-04-06T07:00:00;100949.22;;;4.83;73.92
72925;BME280;61070;50.794;7.054;2023-04-06T07:02:25;100960.84;;;4.99;73.23
72925;BME280;61070;50.794;7.054;2023-04-06T07:04:51;100938.19;;;5.07;72.45
72925;BME280;61070;50.794;7.054;2023-04-06T07:07:16;100938.38;;;5.20;70.94
72925;BME280;61070;50.794;7.054;2023-04-06T07:09:41;100948.00;;;5.20;71.44
72925;BME280;61070;50.794;7.054;2023-04-06T07:12:07;100938.69;;;5.42;70.92
72925;BME280;61070;50.794;7.054;2023-04-06T07:14:32;100935.13;;;5.37;69.39
72925;BME280;61070;50.794;7.054;2023-04-06T07:16:57;100936.31;;;5.62;69.49
72925;BME280;61070;50.794;7.054;2023-04-06T07:19:23;100932.00;;;5.67;69.18
72925;BME280;61070;50.794;7.054;2023-04-06T07:21:48;100928.50;;;5.68;69.92
72925;BME280;61070;50.794;7.054;2023-04-06T07:24:15;100927.94;;;5.93;66.67
72925;BME280;61070;50.794;7.054;2023-04-06T07:26:41;100936.72;;;5.97;66.60
72925;BME280;61070;50.794;7.054;2023-04-06T07:29:07;100939.56;;;6.15;66.96
72925;BME280;61070;50.794;7.054;2023-04-06T07:31:32;100937.94;;;6.29;65.92
72925;BME280;61070;50.794;7.054;2023-04-06T07:33:58;100937.19;;;6.44;66.05
72925;BME280;61070;50.794;7.054;2023-04-06T07:36:23;100941.72;;;6.59;63.96
72925;BME280;61070;50.794;7.054;2023-04-06T07:38:49;100932.97;;;6.61;64.45
72925;BME280;61070;50.794;7.054;2023-04-06T07:41:14;100926.03;;;6.79;63.01
72925;BME280;61070;50.794;7.054;2023-04-06T07:43:40;100930.63;;;7.06;61.71
72925;BME280;61070;50.794;7.054;2023-04-06T07:46:05;100929.00;;;7.27;61.02
72925;BME280;61070;50.794;7.054;2023-04-06T07:48:31;100917.59;;;7.30;60.98
72925;BME280;61070;50.794;7.054;2023-04-06T07:51:01;100925.56;;;7.42;60.78
72925;BME280;61070;50.794;7.054;2023-04-06T07:53:27;100927.41;;;7.68;61.41
72925;BME280;61070;50.794;7.054;2023-04-06T07:55:53;100923.97;;;7.85;59.36
72925;BME280;61070;50.794;7.054;2023-04-06T07:58:18;100920.47;;;7.94;59.30
72925;BME280;61070;50.794;7.054;2023-04-06T08:00:44;100916.03;;;7.90;59.65
72925;BME280;61070;50.794;7.054;2023-04-06T08:03:09;100917.81;;;7.93;59.25
72925;BME280;61070;50.794;7.054;2023-04-06T08:05:34;100917.84;;;7.97;60.02
72925;BME280;61070;50.794;7.054;2023-04-06T08:08:00;100913.41;;;7.84;59.29
72925;BME280;61070;50.794;7.054;2023-04-06T08:10:25;100912.50;;;7.80;58.27
72925;BME280;61070;50.794;7.054;2023-04-06T08:12:52;100916.06;;;7.84;60.21
72925;BME280;61070;50.794;7.054;2023-04-06T08:15:17;100917.84;;;7.94;59.31
72925;BME280;61070;50.794;7.054;2023-04-06T08:17:43;100916.06;;;7.99;60.95
72925;BME280;61070;50.794;7.054;2023-04-06T08:20:09;100909.94;;;8.23;59.08
72925;BME280;61070;50.794;7.054;2023-04-06T08:22:34;100914.34;;;8.21;58.98
72925;BME280;61070;50.794;7.054;2023-04-06T08:24:59;100911.72;;;8.23;58.88
72925;BME280;61070;50.794;7.054;2023-04-06T08:27:25;100902.06;;;8.35;58.03
72925;BME280;61070;50.794;7.054;2023-04-06T08:29:50;100907.38;;;8.41;57.93
72925;BME280;61070;50.794;7.054;2023-04-06T08:32:16;100898.56;;;8.52;58.57
72925;BME280;61070;50.794;7.054;2023-04-06T08:34:42;100903.84;;;8.62;57.54
72925;BME280;61070;50.794;7.054;2023-04-06T08:37:07;100901.19;;;8.67;58.19
72925;BME280;61070;50.794;7.054;2023-04-06T08:39:32;100893.19;;;9.03;57.55
72925;BME280;61070;50.794;7.054;2023-04-06T08:41:59;100894.97;;;9.09;57.27
72925;BME280;61070;50.794;7.054;2023-04-06T08:44:28;100898.44;;;9.22;56.69
72925;BME280;61070;50.794;7.054;2023-04-06T08:46:54;100893.13;;;9.28;56.48
72925;BME280;61070;50.794;7.054;2023-04-06T08:49:20;100887.81;;;9.40;57.41
72925;BME280;61070;50.794;7.054;2023-04-06T08:51:47;100891.25;;;9.57;56.87
72925;BME280;61070;50.794;7.054;2023-04-06T08:54:12;100888.66;;;9.51;56.40
72925;BME280;61070;50.794;7.054;2023-04-06T08:56:38;100885.03;;;9.61;55.90
72925;BME280;61070;50.794;7.054;2023-04-06T08:59:04;100892.03;;;9.73;56.67
72925;BME280;61070;50.794;7.054;2023-04-06T09:01:30;100885.78;;;9.85;56.15
72925;BME280;61070;50.794;7.054;2023-04-06T09:03:59;100894.56;;;9.95;55.90
72925;BME280;61070;50.794;7.054;2023-04-06T09:06:30;100885.59;;;10.22;56.71
72925;BME280;61070;50.794;7.054;2023-04-06T09:08:56;100882.84;;;10.34;55.22
72925;BME280;61070;50.794;7.054;2023-04-06T09:11:22;100884.50;;;10.48;54.71
72925;BME280;61070;50.794;7.054;2023-04-06T09:13:49;100882.66;;;10.57;54.91
72925;BME280;61070;50.794;7.054;2023-04-06T09:16:15;100876.34;;;10.71;53.11
72925;BME280;61070;50.794;7.054;2023-04-06T09:18:40;100884.13;;;10.85;53.22
72925;BME280;61070;50.794;7.054;2023-04-06T09:21:07;100876.97;;;10.95;53.36
72925;BME280;61070;50.794;7.054;2023-04-06T09:23:33;100876.75;;;11.15;53.11
72925;BME280;61070;50.794;7.054;2023-04-06T09:26:17;100874.00;;;11.25;52.55
72925;BME280;61070;50.794;7.054;2023-04-06T09:28:47;100872.84;;;11.46;53.49
72925;BME280;61070;50.794;7.054;2023-04-06T09:31:15;100871.81;;;11.58;51.85
72925;BME280;61070;50.794;7.054;2023-04-06T09:33:43;100875.91;;;11.83;52.14
72925;BME280;61070;50.794;7.054;2023-04-06T09:36:09;100869.59;;;11.92;51.58
72925;BME280;61070;50.794;7.054;2023-04-06T09:38:50;100862.28;;;12.08;50.51
72925;BME280;61070;50.794;7.054;2023-04-06T09:41:29;100856.94;;;12.09;50.50
72925;BME280;61070;50.794;7.054;2023-04-06T09:44:09;100868.06;;;12.33;51.02
72925;BME280;61070;50.794;7.054;2023-04-06T09:46:42;100866.69;;;12.61;49.26
72925;BME280;61070;50.794;7.054;2023-04-06T09:49:09;100866.44;;;12.75;47.88
72925;BME280;61070;50.794;7.054;2023-04-06T09:51:40;100854.97;;;12.73;48.39
72925;BME280;61070;50.794;7.054;2023-04-06T09:54:07;100857.16;;;12.97;47.25
72925;BME280;61070;50.794;7.054;2023-04-06T09:56:46;100863.16;;;13.08;46.21
72925;BME280;61070;50.794;7.054;2023-04-06T09:59:42;100857.97;;;13.02;47.08
72925;BME280;61070;50.794;7.054;2023-04-06T10:02:32;100856.19;;;13.01;45.81
72925;BME280;61070;50.794;7.054;2023-04-06T10:05:03;100848.28;;;12.98;45.08
72925;BME280;61070;50.794;7.054;2023-04-06T10:07:31;100846.44;;;13.03;45.61
72925;BME280;61070;50.794;7.054;2023-04-06T10:09:57;100843.06;;;12.94;43.24
72925;BME280;61070;50.794;7.054;2023-04-06T10:12:24;100845.44;;;13.07;44.61
72925;BME280;61070;50.794;7.054;2023-04-06T10:14:49;100846.53;;;13.42;44.63
72925;BME280;61070;50.794;7.054;2023-04-06T10:17:15;100846.44;;;13.47;43.87
72925;BME280;61070;50.794;7.054;2023-04-06T10:19:53;100851.47;;;13.60;42.77
72925;BME280;61070;50.794;7.054;2023-04-06T10:22:41;100851.72;;;13.50;42.96
72925;BME280;61070;50.794;7.054;2023-04-06T10:25:08;100851.69;;;13.51;42.45
72925;BME280;61070;50.794;7.054;2023-04-06T10:27:34;100856.47;;;13.76;42.83
72925;BME280;61070;50.794;7.054;2023-04-06T10:30:05;100853.25;;;13.98;42.68
72925;BME280;61070;50.794;7.054;2023-04-06T10:32:38;100849.09;;;13.87;41.78
72925;BME280;61070;50.794;7.054;2023-04-06T10:35:10;100846.59;;;13.79;41.03
72925;BME280;61070;50.794;7.054;2023-04-06T10:38:01;100853.59;;;13.85;41.87
72925;BME280;61070;50.794;7.054;2023-04-06T10:40:27;100853.38;;;13.94;42.02
72925;BME280;61070;50.794;7.054;2023-04-06T10:42:55;100848.50;;;14.11;40.92
72925;BME280;61070;50.794;7.054;2023-04-06T10:45:25;100847.69;;;14.09;40.73
72925;BME280;61070;50.794;7.054;2023-04-06T10:47:53;100847.81;;;14.03;41.08
72925;BME280;61070;50.794;7.054;2023-04-06T10:50:18;100838.91;;;14.06;40.41
72925;BME280;61070;50.794;7.054;2023-04-06T10:52:45;100849.19;;;13.84;40.66
72925;BME280;61070;50.794;7.054;2023-04-06T10:55:14;100852.59;;;13.89;40.76
72925;BME280;61070;50.794;7.054;2023-04-06T10:57:40;100840.78;;;14.01;40.50
72925;BME280;61070;50.794;7.054;2023-04-06T11:00:06;100839.06;;;13.98;40.74
72925;BME280;61070;50.794;7.054;2023-04-06T11:02:34;100834.44;;;14.06;40.85
72925;BME280;61070;50.794;7.054;2023-04-06T11:04:59;100841.13;;;14.22;40.22
72925;BME280;61070;50.794;7.054;2023-04-06T11:07:25;100838.38;;;14.25;40.13
72925;BME280;61070;50.794;7.054;2023-04-06T11:09:52;100838.06;;;14.02;40.60
72925;BME280;61070;50.794;7.054;2023-04-06T11:12:26;100833.50;;;14.09;40.28
72925;BME280;61070;50.794;7.054;2023-04-06T11:14:59;100837.59;;;14.22;39.95
72925;BME280;61070;50.794;7.054;2023-04-06T11:17:30;100836.81;;;14.18;40.11
72925;BME280;61070;50.794;7.054;2023-04-06T11:19:56;100841.78;;;14.32;39.96
72925;BME280;61070;50.794;7.054;2023-04-06T11:22:22;100837.50;;;14.25;39.46
72925;BME280;61070;50.794;7.054;2023-04-06T11:24:47;100838.38;;;14.25;39.88
72925;BME280;61070;50.794;7.054;2023-04-06T11:27:14;100840.56;;;14.10;40.04
72925;BME280;61070;50.794;7.054;2023-04-06T11:29:41;100828.03;;;14.13;40.09
72925;BME280;61070;50.794;7.054;2023-04-06T11:32:07;100836.56;;;13.90;40.36
72925;BME280;61070;50.794;7.054;2023-04-06T11:34:37;100837.31;;;13.97;41.00
72925;BME280;61070;50.794;7.054;2023-04-06T11:37:08;100832.44;;;14.16;40.55
72925;BME280;61070;50.794;7.054;2023-04-06T11:42:08;100827.31;;;14.07;40.71
72925;BME280;61070;50.794;7.054;2023-04-06T11:44:39;100827.69;;;13.91;40.29
72925;BME280;61070;50.794;7.054;2023-04-06T11:47:09;100820.03;;;14.13;41.21
72925;BME280;61070;50.794;7.054;2023-04-06T11:49:40;100818.47;;;14.06;40.47
72925;BME280;61070;50.794;7.054;2023-04-06T11:52:16;100811.34;;;14.07;41.50
72925;BME280;61070;50.794;7.054;2023-04-06T11:54:41;100816.94;;;14.32;40.87
72925;BME280;61070;50.794;7.054;2023-04-06T11:57:08;100813.75;;;14.53;40.93
72925;BME280;61070;50.794;7.054;2023-04-06T11:59:35;100808.75;;;14.38;40.72
72925;BME280;61070;50.794;7.054;2023-04-06T12:02:01;100804.94;;;14.51;41.48
72925;BME280;61070;50.794;7.054;2023-04-06T12:04:27;100804.22;;;14.43;40.96
72925;BME280;61070;50.794;7.054;2023-04-06T12:06:52;100817.53;;;14.44;41.57
72925;BME280;61070;50.794;7.054;2023-04-06T12:09:18;100808.09;;;14.30;41.12
72925;BME280;61070;50.794;7.054;2023-04-06T12:11:43;100803.09;;;14.17;41.51
72925;BME280;61070;50.794;7.054;2023-04-06T12:14:09;100802.69;;;14.33;41.76
72925;BME280;61070;50.794;7.054;2023-04-06T12:16:35;100807.88;;;14.37;41.99
72925;BME280;61070;50.794;7.054;2023-04-06T12:19:00;100804.97;;;14.48;41.80
72925;BME280;61070;50.794;7.054;2023-04-06T12:21:32;100806.44;;;14.61;40.86
72925;BME280;61070;50.794;7.054;2023-04-06T12:23:58;100811.38;;;14.41;40.22
72925;BME280;61070;50.794;7.054;2023-04-06T12:26:24;100799.31;;;14.60;40.59
72925;BME280;61070;50.794;7.054;2023-04-06T12:28:50;100806.66;;;14.52;40.58
72925;BME280;61070;50.794;7.054;2023-04-06T12:31:16;100795.09;;;14.53;40.66
72925;BME280;61070;50.794;7.054;2023-04-06T12:33:42;100798.09;;;14.39;40.20
72925;BME280;61070;50.794;7.054;2023-04-06T12:36:13;100800.25;;;14.23;39.88
72925;BME280;61070;50.794;7.054;2023-04-06T12:38:39;100812.75;;;14.21;40.17
72925;BME280;61070;50.794;7.054;2023-04-06T12:41:06;100813.22;;;14.39;39.78
72925;BME280;61070;50.794;7.054;2023-04-06T12:43:31;100803.19;;;14.50;40.23
72925;BME280;61070;50.794;7.054;2023-04-06T12:45:57;100795.91;;;14.55;39.55
72925;BME280;61070;50.794;7.054;2023-04-06T12:48:22;100805.50;;;14.62;38.95
72925;BME280;61070;50.794;7.054;2023-04-06T12:50:58;100796.84;;;14.54;39.04
72925;BME280;61070;50.794;7.054;2023-04-06T12:53:23;100791.50;;;14.54;39.33
72925;BME280;61070;50.794;7.054;2023-04-06T12:55:49;100800.63;;;14.44;39.70